East Peoria, Illinois
Current Conditions -  °F | °C
As of 1:09 AM on Saturday 25 Oct 2014 (Local Time) from KPIA Reporting Station
Broken Clouds Broken Clouds  
Wind Chill: 58°   Ceiling: 2900
Heat Index: 58°   Visibility: 10mi
Dew Point: 50°   Wind: 0mph
Humidity: 75%   Direction: NA
Pressure: 29.95"   Gusts: NA
Location:  40.66°N, 89.59°W
Report Text: KPIA 250609Z 00000KT 10SM BKN029 14/10 A2995 RMK AO2 T01440100
Loading
Personal Weather Stations






























Interactive Weather Map
Tropical Storm Tracking
New forecast layout! Learn more

10-Day Weather Forecast

Advertisements
Track Severe Weather on mobile